Time;durP1;ratioP1;P1;durP2;ratioP2;P2;SDS_P1;SDS_P2;PMS_P1;PMS_P2;Temp;Humidity;BMP_temperature;BMP_pressure;BME280_temperature;BME280_humidity;BME280_pressure;Samples;Min_cycle;Max_cycle;Signal;HPM_P1;HPM_P2
2022/04/19 00:01:07;;;;;;;;;;;;;;;14.44;63.47;98793.47;5060872;28;19936;-36
2022/04/19 00:03:33;;;;;;;;;;;;;;;14.93;62.78;98784.06;5061823;28;19927;-36
2022/04/19 00:05:58;;;;;;;;;;;;;;;14.05;63.73;98793.72;5061152;28;19925;-36
2022/04/19 00:08:23;;;;;;;;;;;;;;;15.00;61.00;98773.28;5059704;28;19920;-36
2022/04/19 00:10:48;;;;;;;;;;;;;;;14.83;62.90;98773.38;5061463;28;20301;-36
2022/04/19 00:13:18;;;;;;;;;;;;;;;14.88;59.71;98773.13;5059859;28;19916;-36
2022/04/19 00:15:43;;;;;;;;;;;;;;;14.50;60.40;98783.69;5062589;28;19923;-36
2022/04/19 00:18:08;;;;;;;;;;;;;;;15.10;58.22;98775.38;5064829;28;19921;-36
2022/04/19 00:20:34;;;;;;;;;;;;;;;15.67;54.31;98773.09;5063238;28;20027;-36
2022/04/19 00:22:59;;;;;;;;;;;;;;;15.35;62.46;98770.53;5061834;28;19920;-36
2022/04/19 00:25:25;;;;;;;;;;;;;;;14.98;65.52;98774.28;5063723;28;19916;-36
2022/04/19 00:27:50;;;;;;;;;;;;;;;14.97;66.68;98764.84;5061470;28;19993;-36
2022/04/19 00:30:15;;;;;;;;;;;;;;;14.78;68.97;98767.56;5062090;28;19920;-36
2022/04/19 00:32:41;;;;;;;;;;;;;;;14.64;70.54;98770.88;5064305;28;20007;-36
2022/04/19 00:35:07;;;;;;;;;;;;;;;14.06;73.36;98769.50;5064448;28;19958;-36
2022/04/19 00:37:35;;;;;;;;;;;;;;;14.67;70.50;98760.38;5062675;28;19926;-36
2022/04/19 00:40:04;;;;;;;;;;;;;;;14.58;68.54;98761.69;5064789;28;19925;-36
2022/04/19 00:42:29;;;;;;;;;;;;;;;14.85;66.52;98754.22;5060674;28;19974;-36
2022/04/19 00:44:55;;;;;;;;;;;;;;;15.03;64.14;98749.78;5063432;28;19916;-36
2022/04/19 00:47:20;;;;;;;;;;;;;;;15.01;64.08;98749.03;5065915;28;20002;-37
2022/04/19 00:49:47;;;;;;;;;;;;;;;15.00;63.12;98749.94;5062221;28;20596;-37
2022/04/19 00:52:12;;;;;;;;;;;;;;;15.06;63.44;98741.84;5065121;28;20481;-37
2022/04/19 00:54:37;;;;;;;;;;;;;;;15.14;65.24;98738.00;5066673;28;20007;-36
2022/04/19 00:57:03;;;;;;;;;;;;;;;14.56;67.96;98742.78;5066420;28;19970;-36
2022/04/19 00:59:28;;;;;;;;;;;;;;;14.58;68.77;98748.72;5062742;28;19950;-37
2022/04/19 01:01:53;;;;;;;;;;;;;;;14.64;70.00;98750.16;5063606;28;20617;-36
2022/04/19 01:04:19;;;;;;;;;;;;;;;14.05;74.20;98756.63;5065006;28;19950;-36
2022/04/19 01:06:44;;;;;;;;;;;;;;;14.17;76.64;98750.84;5064347;28;19931;-36
2022/04/19 01:09:09;;;;;;;;;;;;;;;14.31;75.37;98747.53;5064224;28;19924;-36
2022/04/19 01:14:19;;;;;;;;;;;;;;;13.37;81.31;98755.56;5063397;28;20031;-36
2022/04/19 01:16:44;;;;;;;;;;;;;;;13.77;79.20;98745.03;5063276;28;20082;-36
2022/04/19 01:19:15;;;;;;;;;;;;;;;13.27;80.60;98743.94;5047863;28;19919;-36
2022/04/19 01:21:46;;;;;;;;;;;;;;;12.82;86.79;98750.34;5066078;28;20312;-36
2022/04/19 01:24:15;;;;;;;;;;;;;;;12.55;89.00;98745.50;5066909;28;19931;-36
2022/04/19 01:26:41;;;;;;;;;;;;;;;12.59;87.12;98747.94;5064905;28;19927;-36
2022/04/19 01:29:06;;;;;;;;;;;;;;;12.74;87.80;98745.50;5059214;28;19921;-36
2022/04/19 01:31:31;;;;;;;;;;;;;;;12.79;86.65;98747.06;5063720;28;19920;-36
2022/04/19 01:33:57;;;;;;;;;;;;;;;12.86;84.16;98744.13;5065887;28;19927;-36
2022/04/19 01:36:22;;;;;;;;;;;;;;;12.79;83.05;98732.38;5065089;28;20007;-36
2022/04/19 01:38:48;;;;;;;;;;;;;;;12.75;82.89;98738.63;5063480;28;19956;-36
2022/04/19 01:41:13;;;;;;;;;;;;;;;12.67;82.95;98738.94;5063961;28;19971;-36
2022/04/19 01:43:38;;;;;;;;;;;;;;;12.65;84.28;98739.91;5063367;28;20689;-36
2022/04/19 01:46:04;;;;;;;;;;;;;;;12.56;84.46;98736.00;5064727;28;19924;-36
2022/04/19 01:48:29;;;;;;;;;;;;;;;12.73;83.59;98730.94;5062735;28;19927;-36
2022/04/19 01:50:54;;;;;;;;;;;;;;;13.04;81.84;98723.50;5065229;28;19916;-36
2022/04/19 01:53:20;;;;;;;;;;;;;;;13.39;78.02;98729.66;5062267;28;19950;-36
2022/04/19 01:55:46;;;;;;;;;;;;;;;13.36;77.14;98728.06;5063132;28;19989;-36
2022/04/19 01:58:12;;;;;;;;;;;;;;;12.84;79.56;98724.41;5065168;28;19916;-36
2022/04/19 02:00:37;;;;;;;;;;;;;;;13.17;77.03;98722.88;5060770;28;20972;-36
2022/04/19 02:03:03;;;;;;;;;;;;;;;13.15;76.85;98718.69;5062735;28;20065;-36
2022/04/19 02:05:28;;;;;;;;;;;;;;;13.27;77.01;98722.44;5064927;28;20757;-36
2022/04/19 02:07:53;;;;;;;;;;;;;;;13.02;76.86;98712.41;5061755;28;19924;-36
2022/04/19 02:10:19;;;;;;;;;;;;;;;12.92;78.38;98718.00;5062389;28;19945;-36
2022/04/19 02:12:44;;;;;;;;;;;;;;;13.01;77.04;98721.06;5062709;28;20004;-36
2022/04/19 02:15:10;;;;;;;;;;;;;;;12.83;75.83;98727.94;5064328;28;19951;-36
2022/04/19 02:17:44;;;;;;;;;;;;;;;12.86;77.62;98731.19;5060135;28;20372;-36
2022/04/19 02:20:09;;;;;;;;;;;;;;;12.67;75.31;98722.63;5062525;28;19928;-36
2022/04/19 02:22:35;;;;;;;;;;;;;;;12.37;78.30;98729.97;5062337;28;19920;-36
2022/04/19 02:25:00;;;;;;;;;;;;;;;12.21;81.65;98740.13;5063786;28;20414;-36
2022/04/19 02:27:26;;;;;;;;;;;;;;;12.66;79.50;98734.69;5063659;28;20391;-36
2022/04/19 02:29:51;;;;;;;;;;;;;;;12.91;78.34;98741.34;5062112;28;19923;-36
2022/04/19 02:32:16;;;;;;;;;;;;;;;12.85;77.34;98732.09;5062612;28;19962;-36
2022/04/19 02:34:42;;;;;;;;;;;;;;;13.05;75.82;98732.97;5060041;28;19920;-36
2022/04/19 02:37:07;;;;;;;;;;;;;;;12.66;78.13;98736.44;5062933;28;19920;-36
2022/04/19 02:39:32;;;;;;;;;;;;;;;12.70;78.42;98732.78;5059657;28;20439;-36
2022/04/19 02:41:58;;;;;;;;;;;;;;;12.71;78.81;98724.16;5061539;28;19976;-36
2022/04/19 02:44:23;;;;;;;;;;;;;;;13.11;76.67;98724.91;5064349;28;19921;-36
2022/04/19 02:46:49;;;;;;;;;;;;;;;13.05;75.90;98722.63;5063287;28;19920;-36
2022/04/19 02:49:14;;;;;;;;;;;;;;;12.67;78.37;98728.59;5061221;28;19978;-36
2022/04/19 02:51:40;;;;;;;;;;;;;;;12.58;77.02;98729.03;5060392;28;19920;-36
2022/04/19 02:54:05;;;;;;;;;;;;;;;12.53;77.32;98724.06;5059801;28;19924;-36
2022/04/19 02:56:30;;;;;;;;;;;;;;;12.62;77.25;98720.22;5060933;28;19920;-36
2022/04/19 02:58:56;;;;;;;;;;;;;;;12.53;75.77;98711.16;5060765;28;19920;-36
2022/04/19 03:01:21;;;;;;;;;;;;;;;12.75;76.05;98720.53;5061342;28;20077;-36
2022/04/19 03:03:46;;;;;;;;;;;;;;;12.69;76.51;98719.03;5062798;28;19990;-36
2022/04/19 03:06:11;;;;;;;;;;;;;;;12.19;78.25;98719.53;5060165;28;20744;-36
2022/04/19 03:08:37;;;;;;;;;;;;;;;11.74;83.53;98725.69;5065592;28;19923;-36
2022/04/19 03:11:02;;;;;;;;;;;;;;;11.00;90.58;98732.94;5063141;28;20399;-36
2022/04/19 03:13:28;;;;;;;;;;;;;;;10.49;97.10;98737.38;5059918;28;19924;-36
2022/04/19 03:15:53;;;;;;;;;;;;;;;10.51;98.53;98729.59;5043510;28;20026;-36
2022/04/19 03:18:18;;;;;;;;;;;;;;;10.31;100.00;98727.72;5058490;28;20866;-36
2022/04/19 03:20:46;;;;;;;;;;;;;;;10.35;100.00;98730.13;5062166;28;20066;-36
2022/04/19 03:28:40;;;;;;;;;;;;;;;10.20;100.00;98725.50;5060128;28;19928;-36
2022/04/19 03:31:05;;;;;;;;;;;;;;;10.48;100.00;98724.56;5062821;28;19916;-36
2022/04/19 03:33:32;;;;;;;;;;;;;;;10.06;100.00;98728.56;5062989;28;19931;-36
2022/04/19 03:35:57;;;;;;;;;;;;;;;10.04;100.00;98728.59;5062316;28;20006;-36
2022/04/19 03:38:22;;;;;;;;;;;;;;;9.92;100.00;98729.03;5063379;28;19947;-36
2022/04/19 03:40:48;;;;;;;;;;;;;;;9.73;100.00;98735.66;5066589;28;20021;-36
2022/04/19 03:43:13;;;;;;;;;;;;;;;9.51;100.00;98735.50;5058861;28;20019;-36
2022/04/19 03:45:38;;;;;;;;;;;;;;;9.41;100.00;98734.97;5062350;28;20266;-36
2022/04/19 03:48:05;;;;;;;;;;;;;;;9.54;100.00;98727.72;5065004;28;19978;-36
2022/04/19 03:50:31;;;;;;;;;;;;;;;9.43;100.00;98721.16;5063550;28;20566;-36
2022/04/19 03:52:56;;;;;;;;;;;;;;;9.14;100.00;98724.66;5060721;28;20008;-36
2022/04/19 03:55:23;;;;;;;;;;;;;;;9.44;100.00;98722.00;5061153;28;20003;-36
2022/04/19 03:57:48;;;;;;;;;;;;;;;9.67;100.00;98717.84;5060897;28;19947;-36
2022/04/19 04:00:14;;;;;;;;;;;;;;;9.49;100.00;98721.84;5064857;28;20016;-36
2022/04/19 04:02:39;;;;;;;;;;;;;;;9.18;100.00;98722.84;5062918;28;20342;-36
2022/04/19 04:05:05;;;;;;;;;;;;;;;9.18;100.00;98721.09;5067638;28;19924;-36
2022/04/19 04:07:30;;;;;;;;;;;;;;;9.27;100.00;98721.72;5065197;28;19986;-36
2022/04/19 04:09:55;;;;;;;;;;;;;;;9.68;100.00;98724.69;5064961;28;20011;-36
2022/04/19 04:12:21;;;;;;;;;;;;;;;9.92;100.00;98715.31;5065494;28;20447;-36
2022/04/19 04:14:46;;;;;;;;;;;;;;;9.80;100.00;98725.09;5066001;28;19999;-36
2022/04/19 04:17:11;;;;;;;;;;;;;;;10.02;100.00;98722.66;5066427;28;19916;-36
2022/04/19 04:19:36;;;;;;;;;;;;;;;9.86;100.00;98725.81;5063548;28;19924;-36
2022/04/19 04:22:02;;;;;;;;;;;;;;;10.04;100.00;98718.31;5066230;28;19928;-36
2022/04/19 04:24:27;;;;;;;;;;;;;;;9.82;100.00;98725.06;5063734;28;19920;-36
2022/04/19 04:26:52;;;;;;;;;;;;;;;9.61;100.00;98727.47;5066046;28;20685;-36
2022/04/19 04:29:18;;;;;;;;;;;;;;;9.43;100.00;98730.63;5064992;28;19955;-36
2022/04/19 04:31:43;;;;;;;;;;;;;;;8.99;100.00;98733.66;5064919;28;19943;-36
2022/04/19 04:34:08;;;;;;;;;;;;;;;9.30;100.00;98737.84;5063637;28;19920;-36
2022/04/19 04:36:34;;;;;;;;;;;;;;;9.35;100.00;98741.16;5064188;28;19924;-36
2022/04/19 04:38:59;;;;;;;;;;;;;;;9.76;100.00;98740.69;5066711;28;20003;-36
2022/04/19 04:41:24;;;;;;;;;;;;;;;9.35;100.00;98737.72;5063324;28;19959;-36
2022/04/19 04:43:49;;;;;;;;;;;;;;;9.80;100.00;98734.56;5067073;28;19968;-36
2022/04/19 04:51:42;;;;;;;;;;;;;;;10.14;100.00;98728.28;5066492;28;19942;-36
2022/04/19 04:54:07;;;;;;;;;;;;;;;10.50;100.00;98723.59;5066473;28;19916;-36
2022/04/19 04:56:33;;;;;;;;;;;;;;;10.72;98.82;98721.09;5066111;28;19924;-36
2022/04/19 04:58:58;;;;;;;;;;;;;;;11.09;96.59;98722.28;5065803;28;20069;-36
2022/04/19 05:01:23;;;;;;;;;;;;;;;11.24;95.46;98724.25;5067324;28;20593;-36
2022/04/19 05:03:48;;;;;;;;;;;;;;;11.32;94.73;98728.28;5064740;28;20376;-36
2022/04/19 05:06:14;;;;;;;;;;;;;;;11.42;94.57;98729.56;5061968;28;20089;-36
2022/04/19 05:08:39;;;;;;;;;;;;;;;11.32;93.43;98721.38;5066854;28;20018;-37
2022/04/19 05:11:04;;;;;;;;;;;;;;;10.62;96.32;98728.28;5064287;28;20023;-36
2022/04/19 05:13:29;;;;;;;;;;;;;;;10.81;96.05;98733.63;5065258;28;20040;-37
2022/04/19 05:15:55;;;;;;;;;;;;;;;10.15;99.32;98737.66;5062773;28;19920;-36
2022/04/19 05:18:20;;;;;;;;;;;;;;;10.68;97.38;98737.53;5064921;28;19930;-36
2022/04/19 05:20:45;;;;;;;;;;;;;;;10.45;96.43;98730.66;5066208;28;19912;-36
2022/04/19 05:23:11;;;;;;;;;;;;;;;10.99;95.97;98731.25;5063925;28;20551;-36
2022/04/19 05:25:36;;;;;;;;;;;;;;;10.26;96.79;98741.56;5065351;28;20312;-36
2022/04/19 05:28:01;;;;;;;;;;;;;;;11.17;95.98;98729.69;5067773;28;19952;-37
2022/04/19 05:30:26;;;;;;;;;;;;;;;10.48;98.96;98738.25;5069512;28;19981;-36
2022/04/19 05:32:52;;;;;;;;;;;;;;;10.33;100.00;98747.38;5067041;28;19922;-36
2022/04/19 05:35:17;;;;;;;;;;;;;;;10.63;100.00;98749.75;5068674;28;19923;-36
2022/04/19 05:37:42;;;;;;;;;;;;;;;10.32;100.00;98750.84;5069045;28;20377;-36
2022/04/19 05:40:08;;;;;;;;;;;;;;;11.27;100.00;98742.19;5068422;28;19969;-36
2022/04/19 05:42:33;;;;;;;;;;;;;;;11.30;100.00;98736.06;5066319;28;19924;-36
2022/04/19 05:44:58;;;;;;;;;;;;;;;12.12;98.61;98737.03;5068797;28;19917;-36
2022/04/19 05:47:24;;;;;;;;;;;;;;;12.39;94.09;98736.75;5068626;28;19926;-37
2022/04/19 05:49:49;;;;;;;;;;;;;;;12.48;92.55;98741.50;5068022;28;19923;-37
2022/04/19 05:52:14;;;;;;;;;;;;;;;12.81;88.40;98740.91;5064209;28;19920;-37
2022/04/19 05:54:39;;;;;;;;;;;;;;;13.03;86.47;98737.34;5067501;28;19978;-36
2022/04/19 05:57:05;;;;;;;;;;;;;;;12.83;84.75;98727.94;5063414;28;19927;-37
2022/04/19 05:59:30;;;;;;;;;;;;;;;12.91;82.77;98731.84;5063597;28;19916;-37
2022/04/19 06:04:56;;;;;;;;;;;;;;;13.16;81.01;98736.72;5064955;28;20452;-37
2022/04/19 06:07:22;;;;;;;;;;;;;;;13.18;79.21;98734.03;5063740;28;19975;-36
2022/04/19 06:09:47;;;;;;;;;;;;;;;13.27;80.10;98737.94;5063114;28;19916;-37
2022/04/19 06:12:13;;;;;;;;;;;;;;;13.14;80.55;98737.69;5062620;28;19916;-37
2022/04/19 06:14:38;;;;;;;;;;;;;;;12.90;80.08;98740.47;5063961;28;20392;-37
2022/04/19 06:17:03;;;;;;;;;;;;;;;13.38;78.97;98746.06;5062262;28;19928;-37
2022/04/19 06:19:29;;;;;;;;;;;;;;;13.35;76.05;98741.03;5065800;28;19920;-37
2022/04/19 06:21:55;;;;;;;;;;;;;;;13.44;75.06;98744.94;5062927;28;20687;-37
2022/04/19 06:24:20;;;;;;;;;;;;;;;13.85;74.90;98742.09;5063829;28;20006;-37
2022/04/19 06:26:45;;;;;;;;;;;;;;;13.28;74.51;98745.66;5060188;28;19994;-37
2022/04/19 06:29:11;;;;;;;;;;;;;;;13.23;76.19;98746.75;5064537;28;20582;-36
2022/04/19 06:31:36;;;;;;;;;;;;;;;13.71;75.67;98742.78;5064248;28;19925;-37
2022/04/19 06:34:01;;;;;;;;;;;;;;;13.45;75.59;98737.09;5063516;28;20379;-37
2022/04/19 06:36:27;;;;;;;;;;;;;;;13.47;76.10;98744.78;5064044;28;20018;-37
2022/04/19 06:38:52;;;;;;;;;;;;;;;14.19;76.40;98734.31;5064700;28;19922;-37
2022/04/19 06:41:17;;;;;;;;;;;;;;;13.98;77.24;98746.59;5062860;28;19920;-36
2022/04/19 06:43:43;;;;;;;;;;;;;;;14.80;75.12;98738.06;5063193;28;19915;-37
2022/04/19 06:46:08;;;;;;;;;;;;;;;14.57;73.99;98741.88;5062227;28;19927;-37
2022/04/19 06:48:34;;;;;;;;;;;;;;;14.04;74.17;98745.44;5064799;28;19952;-37
2022/04/19 06:51:00;;;;;;;;;;;;;;;14.98;73.05;98743.16;5063672;28;19916;-37
2022/04/19 06:53:29;;;;;;;;;;;;;;;14.70;74.19;98743.81;5065188;28;20018;-37
2022/04/19 06:55:55;;;;;;;;;;;;;;;14.94;71.70;98737.34;5064141;28;19955;-37
2022/04/19 06:58:20;;;;;;;;;;;;;;;15.22;70.92;98735.81;5062909;28;20214;-37
2022/04/19 07:00:45;;;;;;;;;;;;;;;15.38;68.06;98735.81;5063535;28;19969;-36
2022/04/19 07:03:11;;;;;;;;;;;;;;;15.17;71.35;98737.84;5062070;28;19921;-36
2022/04/19 07:05:36;;;;;;;;;;;;;;;15.27;71.87;98744.19;5064181;28;19921;-36
2022/04/19 07:08:03;;;;;;;;;;;;;;;15.53;68.94;98740.13;5060340;28;20000;-37
2022/04/19 07:10:28;;;;;;;;;;;;;;;16.67;67.66;98734.34;5062562;28;19916;-37
2022/04/19 07:12:54;;;;;;;;;;;;;;;15.32;68.54;98739.56;5063552;28;19916;-37
2022/04/19 07:15:19;;;;;;;;;;;;;;;15.14;73.27;98740.59;5061806;28;19946;-37
2022/04/19 07:17:44;;;;;;;;;;;;;;;15.25;73.74;98735.63;5064123;28;19920;-36
2022/04/19 07:28:21;;;;;;;;;;;;;;;15.43;69.76;98737.22;5064694;28;19935;-37
2022/04/19 07:30:46;;;;;;;;;;;;;;;16.21;71.86;98737.06;5060399;28;20405;-37
2022/04/19 07:33:11;;;;;;;;;;;;;;;17.59;67.03;98732.09;5061670;28;19920;-37
2022/04/19 07:35:37;;;;;;;;;;;;;;;16.36;67.50;98739.72;5061988;28;19935;-36
2022/04/19 07:38:02;;;;;;;;;;;;;;;15.85;72.72;98730.53;5064639;28;20463;-36
2022/04/19 07:40:29;;;;;;;;;;;;;;;16.80;71.93;98728.41;5067424;28;19927;-36
2022/04/19 07:42:54;;;;;;;;;;;;;;;16.33;71.04;98739.88;5065870;28;19927;-36
2022/04/19 07:45:19;;;;;;;;;;;;;;;16.49;73.44;98740.66;5065751;28;19916;-36
2022/04/19 07:47:45;;;;;;;;;;;;;;;16.84;71.33;98742.88;5065676;28;19942;-36
2022/04/19 07:50:10;;;;;;;;;;;;;;;17.28;69.21;98739.25;5065082;28;19920;-36
2022/04/19 07:52:35;;;;;;;;;;;;;;;16.91;72.81;98746.78;5063746;28;20346;-36
2022/04/19 07:55:00;;;;;;;;;;;;;;;16.87;69.96;98740.09;5069327;28;20456;-36
2022/04/19 07:57:26;;;;;;;;;;;;;;;17.05;74.77;98743.31;5066049;28;19981;-37
2022/04/19 07:59:54;;;;;;;;;;;;;;;17.66;68.48;98738.56;5068176;28;19924;-45
2022/04/19 08:02:19;;;;;;;;;;;;;;;17.67;66.02;98741.03;5063630;28;19921;-47
2022/04/19 08:04:45;;;;;;;;;;;;;;;16.80;69.36;98741.41;5064721;28;19986;-45
2022/04/19 08:07:10;;;;;;;;;;;;;;;16.47;66.25;98745.09;5066674;28;20342;-44
2022/04/19 08:09:36;;;;;;;;;;;;;;;17.23;69.60;98741.31;5064353;28;19920;-49
2022/04/19 08:12:01;;;;;;;;;;;;;;;18.26;63.68;98735.44;5065910;28;19924;-46
2022/04/19 08:14:26;;;;;;;;;;;;;;;17.07;65.11;98747.47;5065351;28;20003;-45
2022/04/19 08:16:51;;;;;;;;;;;;;;;17.91;66.92;98748.22;5065256;28;19923;-45
2022/04/19 08:19:16;;;;;;;;;;;;;;;17.82;69.38;98749.66;5065318;28;20065;-47
2022/04/19 08:21:42;;;;;;;;;;;;;;;17.93;72.49;98751.56;5063350;28;20081;-45
2022/04/19 08:24:07;;;;;;;;;;;;;;;18.65;69.28;98753.66;5065170;28;19954;-45
2022/04/19 08:26:32;;;;;;;;;;;;;;;17.61;65.45;98756.22;5065185;28;19921;-47
2022/04/19 08:28:58;;;;;;;;;;;;;;;17.84;70.82;98760.81;5066793;28;19912;-48
2022/04/19 08:31:23;;;;;;;;;;;;;;;18.37;71.73;98756.38;5066256;28;19919;-47
2022/04/19 08:33:48;;;;;;;;;;;;;;;18.55;66.74;98748.25;5065399;28;19924;-46
2022/04/19 08:36:14;;;;;;;;;;;;;;;17.97;66.70;98755.63;5066622;28;20655;-45
2022/04/19 08:38:39;;;;;;;;;;;;;;;18.14;71.15;98754.50;5060602;28;20467;-45
2022/04/19 08:41:04;;;;;;;;;;;;;;;17.62;64.33;98753.53;5065302;28;19999;-46
2022/04/19 08:43:30;;;;;;;;;;;;;;;18.21;64.76;98747.94;5063831;28;20008;-48
2022/04/19 08:45:55;;;;;;;;;;;;;;;17.71;61.17;98749.50;5064106;28;19916;-46
2022/04/19 08:48:20;;;;;;;;;;;;;;;18.01;60.78;98753.66;5066764;28;20007;-47
2022/04/19 08:50:49;;;;;;;;;;;;;;;16.92;68.19;98759.69;5063635;28;19955;-45
2022/04/19 08:58:42;;;;;;;;;;;;;;;17.76;59.15;98761.28;5063180;28;19989;-49
2022/04/19 09:01:08;;;;;;;;;;;;;;;18.68;57.13;98754.31;5064612;28;20841;-46
2022/04/19 09:03:34;;;;;;;;;;;;;;;17.72;56.50;98761.56;5066310;28;20903;-45
2022/04/19 09:05:59;;;;;;;;;;;;;;;19.07;58.41;98759.44;5063909;28;19947;-46
2022/04/19 09:08:24;;;;;;;;;;;;;;;18.64;58.57;98760.66;5062132;28;20692;-46
2022/04/19 09:10:50;;;;;;;;;;;;;;;19.05;60.64;98762.19;5064244;28;19962;-46
2022/04/19 09:13:21;;;;;;;;;;;;;;;18.42;56.84;98758.69;5065419;28;19950;-48
2022/04/19 09:15:46;;;;;;;;;;;;;;;19.59;56.67;98746.13;5066271;28;19920;-49
2022/04/19 09:18:30;;;;;;;;;;;;;;;19.49;51.24;98752.09;5062492;28;19923;-46
2022/04/19 09:20:59;;;;;;;;;;;;;;;20.03;52.89;98755.06;5064677;28;20018;-49
2022/04/19 09:23:25;;;;;;;;;;;;;;;19.14;47.85;98739.81;5061768;28;19940;-45
2022/04/19 09:25:56;;;;;;;;;;;;;;;19.71;54.42;98751.41;5065677;28;19916;-46
2022/04/19 09:28:21;;;;;;;;;;;;;;;18.76;49.08;98744.16;5066638;28;19931;-46
2022/04/19 09:30:51;;;;;;;;;;;;;;;20.95;49.35;98735.88;5066081;28;19916;-50
2022/04/19 09:33:17;;;;;;;;;;;;;;;19.33;50.86;98736.72;5065444;28;20648;-46
2022/04/19 09:35:44;;;;;;;;;;;;;;;19.02;51.43;98752.81;5063331;28;19923;-50
2022/04/19 09:38:09;;;;;;;;;;;;;;;19.16;49.83;98741.38;5063673;28;19920;-46
2022/04/19 09:40:36;;;;;;;;;;;;;;;19.75;49.97;98738.00;5062200;28;19939;-45
2022/04/19 09:43:10;;;;;;;;;;;;;;;19.45;48.58;98733.19;5063930;28;19946;-46
2022/04/19 09:45:46;;;;;;;;;;;;;;;20.95;47.82;98726.25;5065247;28;19920;-47
2022/04/19 09:48:18;;;;;;;;;;;;;;;19.34;47.44;98733.16;5061729;28;20350;-49
2022/04/19 09:50:54;;;;;;;;;;;;;;;19.49;52.77;98734.66;5065809;28;19961;-47
2022/04/19 09:53:20;;;;;;;;;;;;;;;19.45;48.17;98730.59;5065019;28;19916;-46
2022/04/19 09:55:46;;;;;;;;;;;;;;;19.61;47.16;98738.13;5062030;28;20001;-47
2022/04/19 09:58:11;;;;;;;;;;;;;;;19.68;52.80;98728.91;5060805;28;19989;-47
2022/04/19 10:00:36;;;;;;;;;;;;;;;19.42;54.84;98728.22;5062976;28;19920;-47
2022/04/19 10:08:31;;;;;;;;;;;;;;;19.52;50.09;98718.75;5058663;28;21501;-46
2022/04/19 10:10:56;;;;;;;;;;;;;;;20.33;47.86;98709.25;5065018;28;19920;-47
2022/04/19 10:13:25;;;;;;;;;;;;;;;19.55;56.95;98723.75;5060062;28;19916;-48
2022/04/19 10:15:51;;;;;;;;;;;;;;;18.79;52.07;98720.50;5065326;28;19920;-46
2022/04/19 10:18:16;;;;;;;;;;;;;;;20.21;56.30;98721.47;5063888;28;20359;-48
2022/04/19 10:20:51;;;;;;;;;;;;;;;19.90;49.24;98715.13;5062445;28;19921;-48
2022/04/19 10:23:16;;;;;;;;;;;;;;;21.20;53.61;98714.66;5061269;28;19916;-46
2022/04/19 10:25:46;;;;;;;;;;;;;;;20.94;54.85;98723.75;5062001;28;20866;-50
2022/04/19 10:28:13;;;;;;;;;;;;;;;21.56;48.16;98722.31;5061698;28;19960;-48
2022/04/19 10:30:39;;;;;;;;;;;;;;;21.33;49.11;98708.44;5062956;28;19916;-46
2022/04/19 10:33:24;;;;;;;;;;;;;;;19.98;53.53;98714.53;5061072;28;19922;-47
2022/04/19 10:36:08;;;;;;;;;;;;;;;21.01;49.76;98714.47;5062407;28;20578;-46
2022/04/19 10:38:33;;;;;;;;;;;;;;;20.64;52.22;98717.34;5059329;28;20411;-46
2022/04/19 10:40:58;;;;;;;;;;;;;;;20.29;48.96;98712.22;5059166;28;19960;-47
2022/04/19 10:43:23;;;;;;;;;;;;;;;21.62;48.00;98703.44;5060719;28;19928;-48
2022/04/19 10:45:49;;;;;;;;;;;;;;;21.20;53.76;98712.03;5064680;28;19923;-47
2022/04/19 10:48:16;;;;;;;;;;;;;;;20.39;55.44;98710.53;5062917;28;19928;-44
2022/04/19 10:50:44;;;;;;;;;;;;;;;21.67;51.92;98707.34;5061376;28;20242;-46
2022/04/19 10:53:10;;;;;;;;;;;;;;;20.85;50.27;98704.38;5060585;28;19916;-46
2022/04/19 10:55:35;;;;;;;;;;;;;;;20.83;53.24;98701.88;5056278;28;19916;-48
2022/04/19 10:58:16;;;;;;;;;;;;;;;21.95;51.34;98691.94;5059501;28;19931;-50
2022/04/19 11:00:41;;;;;;;;;;;;;;;21.82;50.28;98707.03;5061271;28;19920;-45
2022/04/19 11:03:06;;;;;;;;;;;;;;;22.38;54.08;98706.72;5061619;28;19928;-46
2022/04/19 11:05:35;;;;;;;;;;;;;;;20.21;45.34;98699.75;5059886;28;19920;-49
2022/04/19 11:08:19;;;;;;;;;;;;;;;21.01;49.43;98704.00;5060638;28;20453;-48
2022/04/19 11:10:45;;;;;;;;;;;;;;;20.58;45.97;98692.50;5058431;28;19931;-46
2022/04/19 11:13:11;;;;;;;;;;;;;;;20.09;48.00;98692.81;5058175;28;19920;-48
2022/04/19 11:15:41;;;;;;;;;;;;;;;21.29;48.76;98703.44;5064421;28;19931;-46
2022/04/19 11:18:22;;;;;;;;;;;;;;;22.39;45.48;98691.78;5065818;28;19956;-49
2022/04/19 11:20:47;;;;;;;;;;;;;;;20.68;45.02;98697.84;5062936;28;20073;-46
2022/04/19 11:23:20;;;;;;;;;;;;;;;22.28;48.42;98692.69;5061288;28;20381;-47
2022/04/19 11:25:48;;;;;;;;;;;;;;;21.48;48.62;98702.81;5061292;28;19990;-46
2022/04/19 11:28:15;;;;;;;;;;;;;;;21.57;46.95;98698.56;5063019;28;19928;-49
2022/04/19 11:30:44;;;;;;;;;;;;;;;21.22;46.21;98690.97;5064506;28;19932;-47
2022/04/19 11:33:10;;;;;;;;;;;;;;;21.58;45.42;98686.34;5059881;28;20014;-50
2022/04/19 11:35:35;;;;;;;;;;;;;;;20.93;49.29;98695.91;5061194;28;19916;-47
2022/04/19 11:38:04;;;;;;;;;;;;;;;20.69;45.32;98686.44;5062149;28;19977;-46
2022/04/19 11:48:48;;;;;;;;;;;;;;;23.74;44.26;98670.19;5064789;28;19951;-46
2022/04/19 11:51:14;;;;;;;;;;;;;;;22.84;44.03;98676.47;5060686;28;19928;-51
2022/04/19 11:53:39;;;;;;;;;;;;;;;23.87;40.88;98672.50;5061297;28;19921;-50
2022/04/19 11:56:05;;;;;;;;;;;;;;;20.79;39.41;98674.28;5061133;28;20553;-47
2022/04/19 11:58:31;;;;;;;;;;;;;;;21.37;42.19;98668.78;5060721;28;19935;-49
2022/04/19 12:00:58;;;;;;;;;;;;;;;21.62;42.13;98670.22;5062826;28;19931;-51
2022/04/19 12:03:27;;;;;;;;;;;;;;;22.96;40.51;98658.78;5060655;28;19916;-46
2022/04/19 12:05:54;;;;;;;;;;;;;;;22.14;38.37;98657.13;5061788;28;20454;-51
2022/04/19 12:08:50;;;;;;;;;;;;;;;21.97;40.05;98660.38;5061673;28;20629;-48
2022/04/19 12:11:35;;;;;;;;;;;;;;;22.06;40.93;98673.53;5051241;28;19920;-47
2022/04/19 12:14:03;;;;;;;;;;;;;;;21.67;38.61;98660.19;5060377;28;20865;-47
2022/04/19 12:16:29;;;;;;;;;;;;;;;23.34;40.53;98658.03;5061833;28;19916;-47
2022/04/19 12:18:55;;;;;;;;;;;;;;;22.87;38.22;98651.72;5054062;28;19970;-47
2022/04/19 12:21:39;;;;;;;;;;;;;;;21.40;43.11;98672.91;5057408;28;20003;-51
2022/04/19 12:24:17;;;;;;;;;;;;;;;22.53;39.77;98652.91;5063651;28;19920;-47
2022/04/19 12:26:42;;;;;;;;;;;;;;;23.12;40.57;98664.38;5066309;28;20420;-48
2022/04/19 12:29:12;;;;;;;;;;;;;;;23.35;38.17;98659.66;5065390;28;20128;-49
2022/04/19 12:31:40;;;;;;;;;;;;;;;21.43;41.43;98667.44;5065386;28;19931;-48
2022/04/19 12:34:06;;;;;;;;;;;;;;;21.96;40.59;98654.28;5066177;28;20027;-47
2022/04/19 12:36:41;;;;;;;;;;;;;;;22.89;39.37;98658.50;5064686;28;19927;-47
2022/04/19 12:39:06;;;;;;;;;;;;;;;22.54;37.34;98651.94;5066965;28;19978;-48
2022/04/19 12:41:44;;;;;;;;;;;;;;;22.80;38.56;98658.50;5061797;28;20549;-47
2022/04/19 12:44:10;;;;;;;;;;;;;;;21.31;40.42;98658.78;5062124;28;19974;-49
2022/04/19 12:46:42;;;;;;;;;;;;;;;21.53;42.07;98663.13;5064699;28;19954;-47
2022/04/19 12:49:18;;;;;;;;;;;;;;;21.34;41.10;98652.47;5061774;28;19928;-51
2022/04/19 12:51:51;;;;;;;;;;;;;;;21.56;40.79;98652.38;5063720;28;19917;-49
2022/04/19 12:54:24;;;;;;;;;;;;;;;22.89;38.90;98636.66;5063740;28;20587;-48
2022/04/19 12:57:00;;;;;;;;;;;;;;;22.72;37.27;98635.56;5062768;28;20377;-49
2022/04/19 12:59:26;;;;;;;;;;;;;;;23.57;38.53;98631.44;5066834;28;19970;-47
2022/04/19 13:01:51;;;;;;;;;;;;;;;21.89;37.75;98645.25;5066661;28;20027;-48
2022/04/19 13:04:16;;;;;;;;;;;;;;;22.91;37.94;98635.56;5061432;28;20471;-46
2022/04/19 13:12:18;;;;;;;;;;;;;;;23.08;36.54;98636.72;5064668;28;19926;-48
2022/04/19 13:14:44;;;;;;;;;;;;;;;23.84;34.37;98622.84;5063787;28;20560;-45
2022/04/19 13:17:11;;;;;;;;;;;;;;;23.33;33.97;98630.09;5065401;28;19919;-50
2022/04/19 13:19:37;;;;;;;;;;;;;;;22.08;35.29;98631.44;5062350;28;19924;-45
2022/04/19 13:22:02;;;;;;;;;;;;;;;23.35;37.52;98627.31;5063372;28;19923;-46
2022/04/19 13:24:28;;;;;;;;;;;;;;;22.78;34.94;98613.97;5065580;28;20539;-45
2022/04/19 13:26:53;;;;;;;;;;;;;;;21.70;35.15;98619.78;5063078;28;19927;-46
2022/04/19 13:29:18;;;;;;;;;;;;;;;22.22;34.81;98611.94;5064036;28;19924;-48
2022/04/19 13:31:43;;;;;;;;;;;;;;;23.39;34.37;98613.75;5063904;28;19920;-45